sensor_id;sensor_type;location;lat;lon;timestamp;P1;durP1;ratioP1;P2;durP2;ratioP2
17253;SDS011;32542;52.832;13.816;2023-05-07T00:02:08;8.07;;;3.38;;
17253;SDS011;32542;52.832;13.816;2023-05-07T00:05:11;5.85;;;3.45;;
17253;SDS011;32542;52.832;13.816;2023-05-07T00:08:14;7.63;;;4.00;;
17253;SDS011;32542;52.832;13.816;2023-05-07T00:11:19;8.30;;;3.70;;
17253;SDS011;32542;52.832;13.816;2023-05-07T00:14:21;6.85;;;3.65;;
17253;SDS011;32542;52.832;13.816;2023-05-07T00:17:24;5.78;;;3.55;;
17253;SDS011;32542;52.832;13.816;2023-05-07T00:20:27;4.68;;;3.20;;
17253;SDS011;32542;52.832;13.816;2023-05-07T00:23:30;6.90;;;3.80;;
17253;SDS011;32542;52.832;13.816;2023-05-07T00:26:34;5.43;;;3.13;;
17253;SDS011;32542;52.832;13.816;2023-05-07T00:29:37;6.28;;;3.60;;
17253;SDS011;32542;52.832;13.816;2023-05-07T00:32:40;5.30;;;3.00;;
17253;SDS011;32542;52.832;13.816;2023-05-07T00:35:43;7.85;;;3.33;;
17253;SDS011;32542;52.832;13.816;2023-05-07T00:38:46;5.88;;;4.00;;
17253;SDS011;32542;52.832;13.816;2023-05-07T00:41:50;5.50;;;3.45;;
17253;SDS011;32542;52.832;13.816;2023-05-07T00:44:53;5.18;;;3.33;;
17253;SDS011;32542;52.832;13.816;2023-05-07T00:47:57;4.93;;;2.97;;
17253;SDS011;32542;52.832;13.816;2023-05-07T00:51:02;6.05;;;2.92;;
17253;SDS011;32542;52.832;13.816;2023-05-07T00:54:05;11.07;;;3.40;;
17253;SDS011;32542;52.832;13.816;2023-05-07T00:57:10;5.00;;;2.92;;
17253;SDS011;32542;52.832;13.816;2023-05-07T01:00:13;4.80;;;3.00;;
17253;SDS011;32542;52.832;13.816;2023-05-07T01:03:16;5.30;;;3.33;;
17253;SDS011;32542;52.832;13.816;2023-05-07T01:06:19;5.22;;;2.97;;
17253;SDS011;32542;52.832;13.816;2023-05-07T01:09:25;7.78;;;2.88;;
17253;SDS011;32542;52.832;13.816;2023-05-07T01:12:30;5.03;;;3.10;;
17253;SDS011;32542;52.832;13.816;2023-05-07T01:15:34;6.55;;;3.30;;
17253;SDS011;32542;52.832;13.816;2023-05-07T01:18:37;7.32;;;3.55;;
17253;SDS011;32542;52.832;13.816;2023-05-07T01:21:40;4.93;;;3.08;;
17253;SDS011;32542;52.832;13.816;2023-05-07T01:24:49;6.43;;;3.17;;
17253;SDS011;32542;52.832;13.816;2023-05-07T01:27:52;7.30;;;3.45;;
17253;SDS011;32542;52.832;13.816;2023-05-07T01:31:00;4.47;;;2.75;;
17253;SDS011;32542;52.832;13.816;2023-05-07T01:34:06;5.43;;;3.15;;
17253;SDS011;32542;52.832;13.816;2023-05-07T01:37:10;5.45;;;3.05;;
17253;SDS011;32542;52.832;13.816;2023-05-07T01:40:15;4.47;;;3.08;;
17253;SDS011;32542;52.832;13.816;2023-05-07T01:43:18;5.47;;;2.97;;
17253;SDS011;32542;52.832;13.816;2023-05-07T01:46:22;4.72;;;2.95;;
17253;SDS011;32542;52.832;13.816;2023-05-07T01:49:25;6.38;;;2.78;;
17253;SDS011;32542;52.832;13.816;2023-05-07T01:52:28;6.60;;;2.85;;
17253;SDS011;32542;52.832;13.816;2023-05-07T01:55:33;5.20;;;2.78;;
17253;SDS011;32542;52.832;13.816;2023-05-07T01:58:38;4.78;;;2.60;;
17253;SDS011;32542;52.832;13.816;2023-05-07T02:01:42;5.13;;;2.38;;
17253;SDS011;32542;52.832;13.816;2023-05-07T02:04:46;5.03;;;2.70;;
17253;SDS011;32542;52.832;13.816;2023-05-07T02:07:49;6.13;;;3.25;;
17253;SDS011;32542;52.832;13.816;2023-05-07T02:10:54;4.75;;;2.70;;
17253;SDS011;32542;52.832;13.816;2023-05-07T02:13:56;5.15;;;2.95;;
17253;SDS011;32542;52.832;13.816;2023-05-07T02:16:59;7.70;;;3.05;;
17253;SDS011;32542;52.832;13.816;2023-05-07T02:20:02;5.68;;;3.00;;
17253;SDS011;32542;52.832;13.816;2023-05-07T02:23:06;5.75;;;2.60;;
17253;SDS011;32542;52.832;13.816;2023-05-07T02:26:10;6.00;;;2.63;;
17253;SDS011;32542;52.832;13.816;2023-05-07T02:29:13;4.75;;;2.67;;
17253;SDS011;32542;52.832;13.816;2023-05-07T02:32:16;4.38;;;2.80;;
17253;SDS011;32542;52.832;13.816;2023-05-07T02:35:19;4.13;;;2.53;;
17253;SDS011;32542;52.832;13.816;2023-05-07T02:38:22;4.25;;;2.50;;
17253;SDS011;32542;52.832;13.816;2023-05-07T02:41:26;5.05;;;2.80;;
17253;SDS011;32542;52.832;13.816;2023-05-07T02:44:29;4.28;;;2.50;;
17253;SDS011;32542;52.832;13.816;2023-05-07T02:47:33;5.18;;;2.42;;
17253;SDS011;32542;52.832;13.816;2023-05-07T02:50:36;4.63;;;2.58;;
17253;SDS011;32542;52.832;13.816;2023-05-07T02:53:39;3.47;;;2.60;;
17253;SDS011;32542;52.832;13.816;2023-05-07T02:56:43;5.97;;;2.80;;
17253;SDS011;32542;52.832;13.816;2023-05-07T02:59:46;5.13;;;2.60;;
17253;SDS011;32542;52.832;13.816;2023-05-07T03:02:50;5.60;;;2.72;;
17253;SDS011;32542;52.832;13.816;2023-05-07T03:05:53;4.05;;;2.45;;
17253;SDS011;32542;52.832;13.816;2023-05-07T03:08:56;3.78;;;2.17;;
17253;SDS011;32542;52.832;13.816;2023-05-07T03:12:00;3.45;;;2.70;;
17253;SDS011;32542;52.832;13.816;2023-05-07T03:15:03;3.65;;;2.40;;
17253;SDS011;32542;52.832;13.816;2023-05-07T03:18:07;4.22;;;2.70;;
17253;SDS011;32542;52.832;13.816;2023-05-07T03:21:10;3.10;;;2.30;;
17253;SDS011;32542;52.832;13.816;2023-05-07T03:24:13;3.40;;;2.55;;
17253;SDS011;32542;52.832;13.816;2023-05-07T03:27:17;5.97;;;2.67;;
17253;SDS011;32542;52.832;13.816;2023-05-07T03:30:21;3.40;;;2.53;;
17253;SDS011;32542;52.832;13.816;2023-05-07T03:33:24;5.97;;;2.55;;
17253;SDS011;32542;52.832;13.816;2023-05-07T03:36:29;3.80;;;2.40;;
17253;SDS011;32542;52.832;13.816;2023-05-07T03:39:31;5.55;;;2.40;;
17253;SDS011;32542;52.832;13.816;2023-05-07T03:42:36;3.85;;;2.53;;
17253;SDS011;32542;52.832;13.816;2023-05-07T03:45:39;4.00;;;2.53;;
17253;SDS011;32542;52.832;13.816;2023-05-07T03:48:49;3.08;;;2.30;;
17253;SDS011;32542;52.832;13.816;2023-05-07T03:51:53;4.03;;;2.65;;
17253;SDS011;32542;52.832;13.816;2023-05-07T03:54:58;3.40;;;2.22;;
17253;SDS011;32542;52.832;13.816;2023-05-07T03:58:02;4.20;;;2.45;;
17253;SDS011;32542;52.832;13.816;2023-05-07T04:01:05;3.67;;;2.28;;
17253;SDS011;32542;52.832;13.816;2023-05-07T04:04:09;2.97;;;2.40;;
17253;SDS011;32542;52.832;13.816;2023-05-07T04:07:12;4.35;;;2.50;;
17253;SDS011;32542;52.832;13.816;2023-05-07T04:10:18;4.22;;;2.40;;
17253;SDS011;32542;52.832;13.816;2023-05-07T04:13:24;3.63;;;2.70;;
17253;SDS011;32542;52.832;13.816;2023-05-07T04:16:28;3.40;;;2.55;;
17253;SDS011;32542;52.832;13.816;2023-05-07T04:19:32;3.65;;;2.35;;
17253;SDS011;32542;52.832;13.816;2023-05-07T04:22:35;3.72;;;2.10;;
17253;SDS011;32542;52.832;13.816;2023-05-07T04:25:38;4.88;;;2.38;;
17253;SDS011;32542;52.832;13.816;2023-05-07T04:28:48;3.45;;;2.42;;
17253;SDS011;32542;52.832;13.816;2023-05-07T04:31:51;4.07;;;2.10;;
17253;SDS011;32542;52.832;13.816;2023-05-07T04:34:54;3.28;;;2.50;;
17253;SDS011;32542;52.832;13.816;2023-05-07T04:37:57;3.55;;;2.38;;
17253;SDS011;32542;52.832;13.816;2023-05-07T04:41:02;3.67;;;2.47;;
17253;SDS011;32542;52.832;13.816;2023-05-07T04:44:10;3.45;;;2.15;;
17253;SDS011;32542;52.832;13.816;2023-05-07T04:47:13;5.30;;;2.30;;
17253;SDS011;32542;52.832;13.816;2023-05-07T04:50:16;3.40;;;2.15;;
17253;SDS011;32542;52.832;13.816;2023-05-07T04:53:22;4.05;;;2.63;;
17253;SDS011;32542;52.832;13.816;2023-05-07T04:56:27;3.08;;;1.90;;
17253;SDS011;32542;52.832;13.816;2023-05-07T04:59:33;2.50;;;2.10;;
17253;SDS011;32542;52.832;13.816;2023-05-07T05:02:36;4.60;;;2.35;;
17253;SDS011;32542;52.832;13.816;2023-05-07T05:05:39;3.50;;;2.28;;
17253;SDS011;32542;52.832;13.816;2023-05-07T05:08:42;3.17;;;2.17;;
17253;SDS011;32542;52.832;13.816;2023-05-07T05:11:46;4.03;;;2.50;;
17253;SDS011;32542;52.832;13.816;2023-05-07T05:14:50;4.00;;;2.20;;
17253;SDS011;32542;52.832;13.816;2023-05-07T05:17:55;2.75;;;2.30;;
17253;SDS011;32542;52.832;13.816;2023-05-07T05:20:58;2.75;;;2.10;;
17253;SDS011;32542;52.832;13.816;2023-05-07T05:24:02;3.58;;;2.30;;
17253;SDS011;32542;52.832;13.816;2023-05-07T05:27:05;2.92;;;2.20;;
17253;SDS011;32542;52.832;13.816;2023-05-07T05:30:10;2.33;;;1.95;;
17253;SDS011;32542;52.832;13.816;2023-05-07T05:33:15;2.60;;;1.80;;
17253;SDS011;32542;52.832;13.816;2023-05-07T05:36:18;2.75;;;1.95;;
17253;SDS011;32542;52.832;13.816;2023-05-07T05:39:24;2.88;;;1.80;;
17253;SDS011;32542;52.832;13.816;2023-05-07T05:42:27;3.50;;;2.42;;
17253;SDS011;32542;52.832;13.816;2023-05-07T05:45:31;3.35;;;2.35;;
17253;SDS011;32542;52.832;13.816;2023-05-07T05:48:34;2.78;;;2.10;;
17253;SDS011;32542;52.832;13.816;2023-05-07T05:51:38;2.88;;;2.03;;
17253;SDS011;32542;52.832;13.816;2023-05-07T05:54:42;2.72;;;2.25;;
17253;SDS011;32542;52.832;13.816;2023-05-07T05:57:45;4.03;;;2.20;;
17253;SDS011;32542;52.832;13.816;2023-05-07T06:00:49;3.88;;;2.00;;
17253;SDS011;32542;52.832;13.816;2023-05-07T06:03:58;2.88;;;1.90;;
17253;SDS011;32542;52.832;13.816;2023-05-07T06:07:01;4.20;;;2.17;;
17253;SDS011;32542;52.832;13.816;2023-05-07T06:10:04;3.20;;;2.20;;
17253;SDS011;32542;52.832;13.816;2023-05-07T06:13:09;2.88;;;2.13;;
17253;SDS011;32542;52.832;13.816;2023-05-07T06:16:14;3.05;;;1.98;;
17253;SDS011;32542;52.832;13.816;2023-05-07T06:19:18;3.90;;;2.25;;
17253;SDS011;32542;52.832;13.816;2023-05-07T06:22:26;2.80;;;2.20;;
17253;SDS011;32542;52.832;13.816;2023-05-07T06:25:29;2.92;;;1.90;;
17253;SDS011;32542;52.832;13.816;2023-05-07T06:28:32;2.85;;;2.00;;
17253;SDS011;32542;52.832;13.816;2023-05-07T06:31:40;3.20;;;2.40;;
17253;SDS011;32542;52.832;13.816;2023-05-07T06:34:45;1.85;;;1.70;;
17253;SDS011;32542;52.832;13.816;2023-05-07T06:37:49;2.90;;;1.90;;
17253;SDS011;32542;52.832;13.816;2023-05-07T06:40:56;2.92;;;1.95;;
17253;SDS011;32542;52.832;13.816;2023-05-07T06:43:59;2.88;;;2.17;;
17253;SDS011;32542;52.832;13.816;2023-05-07T06:47:12;3.15;;;1.95;;
17253;SDS011;32542;52.832;13.816;2023-05-07T06:50:19;2.42;;;1.92;;
17253;SDS011;32542;52.832;13.816;2023-05-07T06:53:23;3.10;;;1.90;;
17253;SDS011;32542;52.832;13.816;2023-05-07T06:56:28;3.17;;;2.10;;
17253;SDS011;32542;52.832;13.816;2023-05-07T06:59:31;2.83;;;2.30;;
17253;SDS011;32542;52.832;13.816;2023-05-07T07:02:35;2.63;;;1.88;;
17253;SDS011;32542;52.832;13.816;2023-05-07T07:05:39;1.90;;;1.70;;
17253;SDS011;32542;52.832;13.816;2023-05-07T07:08:42;3.15;;;1.75;;
17253;SDS011;32542;52.832;13.816;2023-05-07T07:11:48;1.98;;;1.63;;
17253;SDS011;32542;52.832;13.816;2023-05-07T07:14:51;2.80;;;2.03;;
17253;SDS011;32542;52.832;13.816;2023-05-07T07:17:57;2.20;;;2.00;;
17253;SDS011;32542;52.832;13.816;2023-05-07T07:21:00;2.80;;;1.77;;
17253;SDS011;32542;52.832;13.816;2023-05-07T07:24:04;2.33;;;1.95;;
17253;SDS011;32542;52.832;13.816;2023-05-07T07:27:07;2.92;;;2.15;;
17253;SDS011;32542;52.832;13.816;2023-05-07T07:30:10;2.58;;;1.88;;
17253;SDS011;32542;52.832;13.816;2023-05-07T07:33:17;2.72;;;2.13;;
17253;SDS011;32542;52.832;13.816;2023-05-07T07:36:20;2.33;;;1.77;;
17253;SDS011;32542;52.832;13.816;2023-05-07T07:39:27;3.28;;;2.10;;
17253;SDS011;32542;52.832;13.816;2023-05-07T07:42:30;2.70;;;1.83;;
17253;SDS011;32542;52.832;13.816;2023-05-07T07:45:34;2.40;;;1.95;;
17253;SDS011;32542;52.832;13.816;2023-05-07T07:48:39;2.70;;;2.15;;
17253;SDS011;32542;52.832;13.816;2023-05-07T07:51:41;2.00;;;1.80;;
17253;SDS011;32542;52.832;13.816;2023-05-07T07:54:46;3.35;;;2.33;;
17253;SDS011;32542;52.832;13.816;2023-05-07T07:57:49;2.95;;;2.05;;
17253;SDS011;32542;52.832;13.816;2023-05-07T08:00:52;2.28;;;1.90;;
17253;SDS011;32542;52.832;13.816;2023-05-07T08:03:59;3.55;;;1.92;;
17253;SDS011;32542;52.832;13.816;2023-05-07T08:07:08;4.88;;;1.90;;
17253;SDS011;32542;52.832;13.816;2023-05-07T08:10:14;3.22;;;2.25;;
17253;SDS011;32542;52.832;13.816;2023-05-07T08:13:26;1.90;;;1.67;;
17253;SDS011;32542;52.832;13.816;2023-05-07T08:16:29;2.22;;;1.90;;
17253;SDS011;32542;52.832;13.816;2023-05-07T08:19:35;2.63;;;2.20;;
17253;SDS011;32542;52.832;13.816;2023-05-07T08:22:40;3.25;;;2.20;;
17253;SDS011;32542;52.832;13.816;2023-05-07T08:25:43;2.22;;;1.92;;
17253;SDS011;32542;52.832;13.816;2023-05-07T08:28:47;3.25;;;1.90;;
17253;SDS011;32542;52.832;13.816;2023-05-07T08:31:49;2.58;;;2.05;;
17253;SDS011;32542;52.832;13.816;2023-05-07T08:34:54;3.58;;;2.00;;
17253;SDS011;32542;52.832;13.816;2023-05-07T08:37:57;2.33;;;1.83;;
17253;SDS011;32542;52.832;13.816;2023-05-07T08:41:00;2.33;;;1.73;;
17253;SDS011;32542;52.832;13.816;2023-05-07T08:44:04;2.60;;;2.05;;
17253;SDS011;32542;52.832;13.816;2023-05-07T08:47:14;2.67;;;1.88;;
17253;SDS011;32542;52.832;13.816;2023-05-07T08:50:19;2.40;;;1.98;;
17253;SDS011;32542;52.832;13.816;2023-05-07T08:53:23;3.05;;;2.10;;
17253;SDS011;32542;52.832;13.816;2023-05-07T08:56:26;2.15;;;1.92;;
17253;SDS011;32542;52.832;13.816;2023-05-07T08:59:29;3.75;;;2.38;;
17253;SDS011;32542;52.832;13.816;2023-05-07T09:02:32;2.20;;;1.70;;
17253;SDS011;32542;52.832;13.816;2023-05-07T09:05:37;2.72;;;2.10;;
17253;SDS011;32542;52.832;13.816;2023-05-07T09:08:44;2.88;;;2.38;;
17253;SDS011;32542;52.832;13.816;2023-05-07T09:11:56;2.50;;;1.77;;
17253;SDS011;32542;52.832;13.816;2023-05-07T09:15:01;2.65;;;1.45;;
17253;SDS011;32542;52.832;13.816;2023-05-07T09:18:06;2.20;;;1.80;;
17253;SDS011;32542;52.832;13.816;2023-05-07T09:21:12;3.17;;;2.17;;
17253;SDS011;32542;52.832;13.816;2023-05-07T09:24:18;2.35;;;1.90;;
17253;SDS011;32542;52.832;13.816;2023-05-07T09:27:21;2.92;;;1.90;;
17253;SDS011;32542;52.832;13.816;2023-05-07T09:30:26;3.22;;;2.30;;
17253;SDS011;32542;52.832;13.816;2023-05-07T09:33:32;2.67;;;1.90;;
17253;SDS011;32542;52.832;13.816;2023-05-07T09:36:38;2.55;;;1.98;;
17253;SDS011;32542;52.832;13.816;2023-05-07T09:39:42;4.80;;;1.90;;
17253;SDS011;32542;52.832;13.816;2023-05-07T09:42:48;2.83;;;1.90;;
17253;SDS011;32542;52.832;13.816;2023-05-07T09:45:51;3.22;;;2.20;;
17253;SDS011;32542;52.832;13.816;2023-05-07T09:48:59;4.10;;;1.90;;
17253;SDS011;32542;52.832;13.816;2023-05-07T09:52:08;3.67;;;1.80;;
17253;SDS011;32542;52.832;13.816;2023-05-07T09:55:20;3.30;;;1.90;;
17253;SDS011;32542;52.832;13.816;2023-05-07T09:58:24;4.55;;;2.15;;
17253;SDS011;32542;52.832;13.816;2023-05-07T10:01:29;4.75;;;2.20;;
17253;SDS011;32542;52.832;13.816;2023-05-07T10:04:34;6.75;;;2.35;;
17253;SDS011;32542;52.832;13.816;2023-05-07T10:07:40;3.15;;;2.08;;
17253;SDS011;32542;52.832;13.816;2023-05-07T10:10:44;6.10;;;2.10;;
17253;SDS011;32542;52.832;13.816;2023-05-07T10:13:51;6.93;;;1.80;;
17253;SDS011;32542;52.832;13.816;2023-05-07T10:16:55;4.50;;;2.22;;
17253;SDS011;32542;52.832;13.816;2023-05-07T10:20:00;3.78;;;2.10;;
17253;SDS011;32542;52.832;13.816;2023-05-07T10:23:06;4.03;;;1.85;;
17253;SDS011;32542;52.832;13.816;2023-05-07T10:26:19;3.65;;;2.00;;
17253;SDS011;32542;52.832;13.816;2023-05-07T10:29:28;3.90;;;1.95;;
17253;SDS011;32542;52.832;13.816;2023-05-07T10:32:39;4.50;;;2.20;;
17253;SDS011;32542;52.832;13.816;2023-05-07T10:35:50;2.65;;;1.92;;
17253;SDS011;32542;52.832;13.816;2023-05-07T10:38:54;5.65;;;2.10;;
17253;SDS011;32542;52.832;13.816;2023-05-07T10:42:06;5.93;;;2.17;;
17253;SDS011;32542;52.832;13.816;2023-05-07T10:45:12;4.25;;;2.30;;
17253;SDS011;32542;52.832;13.816;2023-05-07T10:48:21;3.17;;;1.98;;
17253;SDS011;32542;52.832;13.816;2023-05-07T10:51:36;5.90;;;2.20;;
17253;SDS011;32542;52.832;13.816;2023-05-07T11:06:23;5.13;;;2.33;;
17253;SDS011;32542;52.832;13.816;2023-05-07T11:13:16;9.52;;;1.90;;
17253;SDS011;32542;52.832;13.816;2023-05-07T11:16:23;8.15;;;2.60;;
17253;SDS011;32542;52.832;13.816;2023-05-07T11:19:49;5.70;;;2.03;;
17253;SDS011;32542;52.832;13.816;2023-05-07T11:23:02;7.05;;;2.47;;
17253;SDS011;32542;52.832;13.816;2023-05-07T11:26:10;5.00;;;1.85;;
17253;SDS011;32542;52.832;13.816;2023-05-07T11:29:16;6.68;;;2.47;;
17253;SDS011;32542;52.832;13.816;2023-05-07T11:32:26;4.30;;;1.98;;
17253;SDS011;32542;52.832;13.816;2023-05-07T11:35:32;3.63;;;1.98;;
17253;SDS011;32542;52.832;13.816;2023-05-07T11:38:39;5.45;;;1.85;;
17253;SDS011;32542;52.832;13.816;2023-05-07T11:41:41;5.88;;;2.13;;
17253;SDS011;32542;52.832;13.816;2023-05-07T11:44:46;8.15;;;1.98;;
17253;SDS011;32542;52.832;13.816;2023-05-07T11:47:49;6.97;;;2.25;;
17253;SDS011;32542;52.832;13.816;2023-05-07T11:50:53;6.72;;;2.10;;
17253;SDS011;32542;52.832;13.816;2023-05-07T11:54:03;3.33;;;1.85;;
17253;SDS011;32542;52.832;13.816;2023-05-07T11:57:14;5.78;;;1.83;;
17253;SDS011;32542;52.832;13.816;2023-05-07T12:00:18;5.88;;;2.17;;
17253;SDS011;32542;52.832;13.816;2023-05-07T12:03:22;4.65;;;2.22;;
17253;SDS011;32542;52.832;13.816;2023-05-07T12:06:24;9.52;;;2.08;;
17253;SDS011;32542;52.832;13.816;2023-05-07T12:09:28;7.25;;;2.00;;
17253;SDS011;32542;52.832;13.816;2023-05-07T12:12:31;9.40;;;2.15;;
17253;SDS011;32542;52.832;13.816;2023-05-07T12:15:42;5.85;;;2.08;;
17253;SDS011;32542;52.832;13.816;2023-05-07T12:18:45;4.07;;;1.92;;
17253;SDS011;32542;52.832;13.816;2023-05-07T12:21:48;5.75;;;1.83;;
17253;SDS011;32542;52.832;13.816;2023-05-07T12:24:56;4.75;;;1.80;;
17253;SDS011;32542;52.832;13.816;2023-05-07T12:28:00;7.18;;;2.25;;
17253;SDS011;32542;52.832;13.816;2023-05-07T12:31:04;3.50;;;1.95;;
17253;SDS011;32542;52.832;13.816;2023-05-07T12:34:08;6.85;;;2.15;;
17253;SDS011;32542;52.832;13.816;2023-05-07T12:37:12;6.03;;;2.05;;
17253;SDS011;32542;52.832;13.816;2023-05-07T12:40:15;5.93;;;2.00;;
17253;SDS011;32542;52.832;13.816;2023-05-07T12:43:18;4.97;;;2.30;;
17253;SDS011;32542;52.832;13.816;2023-05-07T12:46:23;5.57;;;2.40;;
17253;SDS011;32542;52.832;13.816;2023-05-07T12:49:26;4.22;;;2.05;;
17253;SDS011;32542;52.832;13.816;2023-05-07T12:52:29;5.43;;;1.95;;
17253;SDS011;32542;52.832;13.816;2023-05-07T12:55:34;3.20;;;1.65;;
17253;SDS011;32542;52.832;13.816;2023-05-07T12:58:43;4.38;;;1.70;;
17253;SDS011;32542;52.832;13.816;2023-05-07T13:01:48;4.72;;;2.50;;
17253;SDS011;32542;52.832;13.816;2023-05-07T13:04:51;4.20;;;1.80;;
17253;SDS011;32542;52.832;13.816;2023-05-07T13:07:54;3.28;;;1.70;;
17253;SDS011;32542;52.832;13.816;2023-05-07T13:10:58;4.35;;;2.17;;
17253;SDS011;32542;52.832;13.816;2023-05-07T13:14:04;3.63;;;2.08;;
17253;SDS011;32542;52.832;13.816;2023-05-07T13:17:08;3.33;;;1.60;;
17253;SDS011;32542;52.832;13.816;2023-05-07T13:20:11;4.53;;;2.08;;
17253;SDS011;32542;52.832;13.816;2023-05-07T13:23:14;7.25;;;1.90;;
17253;SDS011;32542;52.832;13.816;2023-05-07T13:26:17;5.22;;;2.00;;
17253;SDS011;32542;52.832;13.816;2023-05-07T13:29:27;4.72;;;1.95;;
17253;SDS011;32542;52.832;13.816;2023-05-07T13:32:32;4.05;;;1.90;;
17253;SDS011;32542;52.832;13.816;2023-05-07T13:35:35;7.90;;;1.90;;
17253;SDS011;32542;52.832;13.816;2023-05-07T13:38:39;7.78;;;2.13;;
17253;SDS011;32542;52.832;13.816;2023-05-07T13:41:41;5.00;;;2.00;;
17253;SDS011;32542;52.832;13.816;2023-05-07T13:44:44;3.95;;;2.15;;
17253;SDS011;32542;52.832;13.816;2023-05-07T13:47:49;7.30;;;2.25;;
17253;SDS011;32542;52.832;13.816;2023-05-07T13:50:52;3.25;;;2.00;;
17253;SDS011;32542;52.832;13.816;2023-05-07T13:53:54;4.20;;;1.70;;
17253;SDS011;32542;52.832;13.816;2023-05-07T13:56:57;4.75;;;1.88;;
17253;SDS011;32542;52.832;13.816;2023-05-07T14:00:00;8.15;;;1.70;;
17253;SDS011;32542;52.832;13.816;2023-05-07T14:03:06;3.90;;;1.85;;
17253;SDS011;32542;52.832;13.816;2023-05-07T14:06:09;3.63;;;1.98;;
17253;SDS011;32542;52.832;13.816;2023-05-07T14:09:11;3.53;;;1.80;;
17253;SDS011;32542;52.832;13.816;2023-05-07T14:12:14;3.58;;;1.80;;
17253;SDS011;32542;52.832;13.816;2023-05-07T14:15:17;3.63;;;1.55;;
17253;SDS011;32542;52.832;13.816;2023-05-07T14:18:21;2.35;;;1.88;;
17253;SDS011;32542;52.832;13.816;2023-05-07T14:21:24;4.55;;;1.88;;
17253;SDS011;32542;52.832;13.816;2023-05-07T14:24:27;6.85;;;2.25;;
17253;SDS011;32542;52.832;13.816;2023-05-07T14:27:39;3.65;;;1.90;;
17253;SDS011;32542;52.832;13.816;2023-05-07T14:30:41;2.75;;;1.70;;
17253;SDS011;32542;52.832;13.816;2023-05-07T14:33:46;3.28;;;1.60;;
17253;SDS011;32542;52.832;13.816;2023-05-07T14:36:48;2.75;;;1.58;;
17253;SDS011;32542;52.832;13.816;2023-05-07T14:39:51;5.95;;;1.80;;
17253;SDS011;32542;52.832;13.816;2023-05-07T14:42:54;1.50;;;1.40;;
17253;SDS011;32542;52.832;13.816;2023-05-07T14:45:58;6.75;;;1.48;;
17253;SDS011;32542;52.832;13.816;2023-05-07T14:49:03;2.75;;;1.60;;
17253;SDS011;32542;52.832;13.816;2023-05-07T14:52:06;2.55;;;1.60;;
17253;SDS011;32542;52.832;13.816;2023-05-07T14:55:10;2.42;;;1.23;;
17253;SDS011;32542;52.832;13.816;2023-05-07T14:58:13;2.05;;;1.50;;
17253;SDS011;32542;52.832;13.816;2023-05-07T15:01:16;1.63;;;1.30;;
17253;SDS011;32542;52.832;13.816;2023-05-07T15:04:20;4.15;;;1.60;;
17253;SDS011;32542;52.832;13.816;2023-05-07T15:07:23;2.15;;;1.42;;
17253;SDS011;32542;52.832;13.816;2023-05-07T15:10:26;1.80;;;1.38;;
17253;SDS011;32542;52.832;13.816;2023-05-07T15:13:29;3.17;;;1.52;;
17253;SDS011;32542;52.832;13.816;2023-05-07T15:16:32;1.92;;;1.27;;
17253;SDS011;32542;52.832;13.816;2023-05-07T15:19:36;1.33;;;1.20;;
17253;SDS011;32542;52.832;13.816;2023-05-07T15:22:39;2.47;;;2.00;;
17253;SDS011;32542;52.832;13.816;2023-05-07T15:25:43;1.70;;;1.10;;
17253;SDS011;32542;52.832;13.816;2023-05-07T15:28:47;2.22;;;1.40;;
17253;SDS011;32542;52.832;13.816;2023-05-07T15:31:50;1.90;;;1.40;;
17253;SDS011;32542;52.832;13.816;2023-05-07T15:34:54;2.25;;;1.38;;
17253;SDS011;32542;52.832;13.816;2023-05-07T15:37:57;1.52;;;1.23;;
17253;SDS011;32542;52.832;13.816;2023-05-07T15:41:00;1.98;;;1.13;;
17253;SDS011;32542;52.832;13.816;2023-05-07T15:44:03;1.70;;;1.15;;
17253;SDS011;32542;52.832;13.816;2023-05-07T15:47:06;1.40;;;1.23;;
17253;SDS011;32542;52.832;13.816;2023-05-07T15:50:10;1.40;;;1.10;;
17253;SDS011;32542;52.832;13.816;2023-05-07T15:53:13;1.77;;;1.20;;
17253;SDS011;32542;52.832;13.816;2023-05-07T15:56:16;2.33;;;1.10;;
17253;SDS011;32542;52.832;13.816;2023-05-07T15:59:19;4.00;;;1.30;;
17253;SDS011;32542;52.832;13.816;2023-05-07T16:02:22;3.17;;;1.20;;
17253;SDS011;32542;52.832;13.816;2023-05-07T16:05:26;2.90;;;1.33;;
17253;SDS011;32542;52.832;13.816;2023-05-07T16:08:29;1.52;;;1.20;;
17253;SDS011;32542;52.832;13.816;2023-05-07T16:11:34;1.60;;;1.13;;
17253;SDS011;32542;52.832;13.816;2023-05-07T16:14:36;1.65;;;1.20;;
17253;SDS011;32542;52.832;13.816;2023-05-07T16:17:39;1.83;;;1.00;;
17253;SDS011;32542;52.832;13.816;2023-05-07T16:20:44;1.92;;;1.10;;
17253;SDS011;32542;52.832;13.816;2023-05-07T16:23:47;1.35;;;1.00;;
17253;SDS011;32542;52.832;13.816;2023-05-07T16:26:51;1.55;;;1.00;;
17253;SDS011;32542;52.832;13.816;2023-05-07T16:29:53;2.88;;;1.27;;
17253;SDS011;32542;52.832;13.816;2023-05-07T16:32:56;1.35;;;1.00;;
17253;SDS011;32542;52.832;13.816;2023-05-07T16:36:00;3.25;;;1.20;;
17253;SDS011;32542;52.832;13.816;2023-05-07T16:39:03;1.30;;;1.15;;
17253;SDS011;32542;52.832;13.816;2023-05-07T16:42:07;1.65;;;1.35;;
17253;SDS011;32542;52.832;13.816;2023-05-07T16:45:09;1.98;;;1.20;;
17253;SDS011;32542;52.832;13.816;2023-05-07T16:48:13;4.20;;;1.20;;
17253;SDS011;32542;52.832;13.816;2023-05-07T16:51:17;4.47;;;1.45;;
17253;SDS011;32542;52.832;13.816;2023-05-07T16:54:20;4.18;;;1.48;;
17253;SDS011;32542;52.832;13.816;2023-05-07T16:57:23;1.30;;;1.20;;
17253;SDS011;32542;52.832;13.816;2023-05-07T17:00:26;4.47;;;1.15;;
17253;SDS011;32542;52.832;13.816;2023-05-07T17:03:42;1.73;;;1.30;;
17253;SDS011;32542;52.832;13.816;2023-05-07T17:06:47;1.17;;;0.93;;
17253;SDS011;32542;52.832;13.816;2023-05-07T17:09:50;4.32;;;1.00;;
17253;SDS011;32542;52.832;13.816;2023-05-07T17:12:52;1.30;;;1.10;;
17253;SDS011;32542;52.832;13.816;2023-05-07T17:15:55;1.80;;;0.95;;
17253;SDS011;32542;52.832;13.816;2023-05-07T17:18:58;4.32;;;1.20;;
17253;SDS011;32542;52.832;13.816;2023-05-07T17:22:02;1.20;;;1.10;;
17253;SDS011;32542;52.832;13.816;2023-05-07T17:25:05;1.67;;;1.10;;
17253;SDS011;32542;52.832;13.816;2023-05-07T17:28:09;2.08;;;1.23;;
17253;SDS011;32542;52.832;13.816;2023-05-07T17:31:12;2.15;;;1.35;;
17253;SDS011;32542;52.832;13.816;2023-05-07T17:34:15;3.80;;;1.30;;
17253;SDS011;32542;52.832;13.816;2023-05-07T17:37:19;1.52;;;1.20;;
17253;SDS011;32542;52.832;13.816;2023-05-07T17:40:24;1.98;;;1.02;;
17253;SDS011;32542;52.832;13.816;2023-05-07T17:43:29;1.63;;;1.17;;
17253;SDS011;32542;52.832;13.816;2023-05-07T17:46:32;2.42;;;1.30;;
17253;SDS011;32542;52.832;13.816;2023-05-07T17:49:35;3.28;;;1.20;;
17253;SDS011;32542;52.832;13.816;2023-05-07T17:52:40;2.03;;;1.40;;
17253;SDS011;32542;52.832;13.816;2023-05-07T17:55:43;1.23;;;1.10;;
17253;SDS011;32542;52.832;13.816;2023-05-07T17:58:46;4.70;;;1.30;;
17253;SDS011;32542;52.832;13.816;2023-05-07T18:01:59;1.60;;;1.15;;
17253;SDS011;32542;52.832;13.816;2023-05-07T18:05:02;4.28;;;1.10;;
17253;SDS011;32542;52.832;13.816;2023-05-07T18:08:07;2.45;;;1.00;;
17253;SDS011;32542;52.832;13.816;2023-05-07T18:11:09;1.25;;;1.00;;
17253;SDS011;32542;52.832;13.816;2023-05-07T18:14:13;1.33;;;1.08;;
17253;SDS011;32542;52.832;13.816;2023-05-07T18:17:16;1.80;;;1.10;;
17253;SDS011;32542;52.832;13.816;2023-05-07T18:20:18;1.50;;;1.10;;
17253;SDS011;32542;52.832;13.816;2023-05-07T18:23:23;1.40;;;1.15;;
17253;SDS011;32542;52.832;13.816;2023-05-07T18:26:26;2.70;;;1.10;;
17253;SDS011;32542;52.832;13.816;2023-05-07T18:29:29;4.55;;;1.23;;